СИЛА РОССИИ. Форум сайта «Отвага» (www.otvaga2004.ru)

Информация о пользователе

Привет, Гость! Войдите или зарегистрируйтесь.


Вы здесь » СИЛА РОССИИ. Форум сайта «Отвага» (www.otvaga2004.ru) » Вооружение сухопутных войск


Вооружение сухопутных войск

Тем 61 страница 90 из 214

Тема Ответов Просмотров Последнее сообщение
1003 45398 2021-06-04 15:27:49  Dobryak
905 44424 2021-02-15 09:30:40  powermax
0 996 2021-02-06 09:41:38  mr_tank
4 1381 2021-02-05 11:23:19  mr_tank
249 37242 2021-01-05 14:54:46  Oleg7700
66 Закрыта Противотанковые средства 6  finnbogi  [ 1 2 3  41 ]
1224 83954 2020-11-02 23:25:40  Retiv
67 Закрыта Пулеметы-8  KORVIN  [ 1 2 3  38 ]
1133 126519 2020-10-30 21:22:50  Мак Сим
68 Закрыта Вооруженные силы: общие вопросы 4  Realist  [ 1 2 3  38 ]
1130 77725 2020-10-25 09:26:31  отрохов
69 Закрыта Средства ПВО-9  ДимитриUS  [ 1 2 3  40 ]
1190 125137 2020-10-22 21:29:22  Blitz.
1494 147012 2020-10-19 17:10:14  Wind
71 Закрыта Средства ПВО - 8  kinetic  [ 1 2 3  34 ]
1008 112021 2020-09-25 21:59:29  Oleg7700
72 РЛС разведки  Astax  [ 1 2 ]
50 12993 2020-08-29 11:54:15  Василий_Пупкин_123
73 Оружейные и околооружейные новости  Хорт мохнатый  [ 1 2 3  17 ]
501 62283 2020-08-09 19:41:11  Viktory
74 вопрос про КПВТ  Нихтферштейн
7 1591 2020-06-13 21:26:23  Blitz.
20 4131 2020-05-17 10:47:45  Astax
76 Околовоенные новости  Zaklepkin  [ 1 2 3  11 ]
305 31800 2020-04-23 17:57:51  Viktory
999 92480 2019-10-23 17:29:42  __Memento_mori__
999 12387 2019-10-06 20:55:16  sasa
999 10939 2019-09-18 21:47:26  sasa
80 Пистолеты-3  KORVIN  [ 1 2 3  34 ]
999 62306 2019-09-13 01:22:27  KORVIN
81 Какими должны быть ВДВ? - 4  Сергей-1982  [ 1 2 3  34 ]
999 10687 2019-09-04 15:47:16  8569
0 547 2019-08-25 11:15:20  sasa
999 26945 2019-08-25 10:29:39  finnbogi
84 Инженерные войска.  Виталий Иванович (PQ)  [ 1 2 3  18 ]
528 64774 2019-07-02 07:49:51  NoName
85 Народно-освободительная армия Китая 2  Виталий Иванович (PQ)  [ 1 2 3  34 ]
999 94466 2019-06-17 19:39:53  Абалкин
1 794 2019-06-08 04:21:05  GRU
87 Противотанковые средства 6  Атабек  [ 1 2 3  34 ]
995 70057 2019-06-05 17:01:35  Шестопер
88 Экспорт оружия.  Сергей-1982
0 483 2019-06-03 14:57:14  Сергей-1982
488 13566 2019-05-13 19:22:07  Абалкин
61 7248 2019-05-11 23:10:37  vasya83

Вы здесь » СИЛА РОССИИ. Форум сайта «Отвага» (www.otvaga2004.ru) » Вооружение сухопутных войск